sensor_id;sensor_type;location;lat;lon;timestamp;P1;durP1;ratioP1;P2;durP2;ratioP2
38811;SDS011;24553;51.640;-0.752;2022-11-06T00:01:09;4.70;;;2.20;;
38811;SDS011;24553;51.640;-0.752;2022-11-06T00:03:39;4.93;;;2.10;;
38811;SDS011;24553;51.640;-0.752;2022-11-06T00:06:05;6.07;;;3.40;;
38811;SDS011;24553;51.640;-0.752;2022-11-06T00:08:53;2.80;;;1.23;;
38811;SDS011;24553;51.640;-0.752;2022-11-06T00:11:18;3.17;;;2.20;;
38811;SDS011;24553;51.640;-0.752;2022-11-06T00:13:44;6.45;;;1.50;;
38811;SDS011;24553;51.640;-0.752;2022-11-06T00:16:11;4.57;;;1.60;;
38811;SDS011;24553;51.640;-0.752;2022-11-06T00:18:37;2.50;;;1.45;;
38811;SDS011;24553;51.640;-0.752;2022-11-06T00:21:11;4.22;;;2.25;;
38811;SDS011;24553;51.640;-0.752;2022-11-06T00:23:40;3.65;;;2.20;;
38811;SDS011;24553;51.640;-0.752;2022-11-06T00:26:07;6.20;;;1.92;;
38811;SDS011;24553;51.640;-0.752;2022-11-06T00:28:36;2.60;;;1.50;;
38811;SDS011;24553;51.640;-0.752;2022-11-06T00:31:02;4.70;;;1.35;;
38811;SDS011;24553;51.640;-0.752;2022-11-06T00:33:30;1.90;;;1.05;;
38811;SDS011;24553;51.640;-0.752;2022-11-06T00:35:56;3.20;;;1.27;;
38811;SDS011;24553;51.640;-0.752;2022-11-06T00:38:21;6.72;;;2.22;;
38811;SDS011;24553;51.640;-0.752;2022-11-06T00:40:47;3.92;;;1.55;;
38811;SDS011;24553;51.640;-0.752;2022-11-06T00:43:13;6.97;;;1.88;;
38811;SDS011;24553;51.640;-0.752;2022-11-06T00:45:38;4.93;;;2.75;;
38811;SDS011;24553;51.640;-0.752;2022-11-06T00:48:03;5.80;;;1.65;;
38811;SDS011;24553;51.640;-0.752;2022-11-06T00:50:29;1.38;;;1.27;;
38811;SDS011;24553;51.640;-0.752;2022-11-06T00:52:54;5.88;;;1.58;;
38811;SDS011;24553;51.640;-0.752;2022-11-06T00:55:20;3.58;;;1.98;;
38811;SDS011;24553;51.640;-0.752;2022-11-06T00:57:45;1.13;;;0.93;;
38811;SDS011;24553;51.640;-0.752;2022-11-06T01:00:11;7.55;;;2.38;;
38811;SDS011;24553;51.640;-0.752;2022-11-06T01:02:36;2.58;;;1.45;;
38811;SDS011;24553;51.640;-0.752;2022-11-06T01:05:02;3.33;;;1.55;;
38811;SDS011;24553;51.640;-0.752;2022-11-06T01:07:28;5.25;;;1.75;;
38811;SDS011;24553;51.640;-0.752;2022-11-06T01:09:53;3.22;;;2.63;;
38811;SDS011;24553;51.640;-0.752;2022-11-06T01:12:19;2.42;;;1.70;;
38811;SDS011;24553;51.640;-0.752;2022-11-06T01:14:44;4.13;;;2.10;;
38811;SDS011;24553;51.640;-0.752;2022-11-06T01:17:09;1.75;;;1.30;;
38811;SDS011;24553;51.640;-0.752;2022-11-06T01:19:35;2.88;;;2.15;;
38811;SDS011;24553;51.640;-0.752;2022-11-06T01:22:00;3.35;;;2.17;;
38811;SDS011;24553;51.640;-0.752;2022-11-06T01:24:26;3.05;;;1.92;;
38811;SDS011;24553;51.640;-0.752;2022-11-06T01:26:53;5.30;;;2.10;;
38811;SDS011;24553;51.640;-0.752;2022-11-06T01:29:18;3.85;;;2.97;;
38811;SDS011;24553;51.640;-0.752;2022-11-06T01:31:45;2.78;;;2.20;;
38811;SDS011;24553;51.640;-0.752;2022-11-06T01:34:13;3.35;;;1.85;;
38811;SDS011;24553;51.640;-0.752;2022-11-06T01:36:39;5.25;;;2.30;;
38811;SDS011;24553;51.640;-0.752;2022-11-06T01:39:06;2.03;;;1.45;;
38811;SDS011;24553;51.640;-0.752;2022-11-06T01:41:34;2.53;;;1.55;;
38811;SDS011;24553;51.640;-0.752;2022-11-06T01:47:17;0.52;;;0.52;;
38811;SDS011;24553;51.640;-0.752;2022-11-06T01:49:57;0.93;;;0.73;;
38811;SDS011;24553;51.640;-0.752;2022-11-06T01:52:27;0.73;;;0.73;;
38811;SDS011;24553;51.640;-0.752;2022-11-06T01:54:57;4.07;;;0.52;;
38811;SDS011;24553;51.640;-0.752;2022-11-06T01:57:30;1.42;;;1.20;;
38811;SDS011;24553;51.640;-0.752;2022-11-06T01:59:56;2.47;;;0.50;;
38811;SDS011;24553;51.640;-0.752;2022-11-06T02:02:21;1.85;;;1.42;;
38811;SDS011;24553;51.640;-0.752;2022-11-06T02:04:47;1.27;;;1.17;;
38811;SDS011;24553;51.640;-0.752;2022-11-06T02:07:14;1.83;;;1.45;;
38811;SDS011;24553;51.640;-0.752;2022-11-06T02:09:41;1.80;;;1.17;;
38811;SDS011;24553;51.640;-0.752;2022-11-06T02:14:39;0.77;;;0.38;;
38811;SDS011;24553;51.640;-0.752;2022-11-06T02:23:09;0.50;;;0.50;;
38811;SDS011;24553;51.640;-0.752;2022-11-06T02:28:52;0.90;;;0.22;;
38811;SDS011;24553;51.640;-0.752;2022-11-06T02:31:24;0.55;;;0.50;;
38811;SDS011;24553;51.640;-0.752;2022-11-06T02:33:53;1.92;;;0.68;;
38811;SDS011;24553;51.640;-0.752;2022-11-06T02:36:24;0.75;;;0.20;;
38811;SDS011;24553;51.640;-0.752;2022-11-06T02:38:55;0.75;;;0.55;;
38811;SDS011;24553;51.640;-0.752;2022-11-06T02:41:27;2.72;;;0.85;;
38811;SDS011;24553;51.640;-0.752;2022-11-06T02:43:56;1.45;;;0.30;;
38811;SDS011;24553;51.640;-0.752;2022-11-06T02:46:27;0.13;;;0.13;;
38811;SDS011;24553;51.640;-0.752;2022-11-06T02:49:00;0.93;;;0.68;;
38811;SDS011;24553;51.640;-0.752;2022-11-06T02:51:32;0.95;;;0.55;;
38811;SDS011;24553;51.640;-0.752;2022-11-06T02:54:06;0.30;;;0.20;;
38811;SDS011;24553;51.640;-0.752;2022-11-06T02:56:38;0.20;;;0.20;;
38811;SDS011;24553;51.640;-0.752;2022-11-06T02:59:13;0.22;;;0.10;;
38811;SDS011;24553;51.640;-0.752;2022-11-06T03:01:43;1.10;;;0.45;;
38811;SDS011;24553;51.640;-0.752;2022-11-06T03:04:15;0.00;;;0.00;;
38811;SDS011;24553;51.640;-0.752;2022-11-06T03:06:50;0.10;;;0.00;;
38811;SDS011;24553;51.640;-0.752;2022-11-06T03:09:24;0.47;;;0.38;;
38811;SDS011;24553;51.640;-0.752;2022-11-06T03:11:56;0.30;;;0.00;;
38811;SDS011;24553;51.640;-0.752;2022-11-06T03:17:14;0.03;;;0.03;;
38811;SDS011;24553;51.640;-0.752;2022-11-06T03:22:29;1.10;;;0.00;;
38811;SDS011;24553;51.640;-0.752;2022-11-06T03:25:08;0.40;;;0.00;;
38811;SDS011;24553;51.640;-0.752;2022-11-06T03:28:02;0.65;;;0.30;;
38811;SDS011;24553;51.640;-0.752;2022-11-06T03:30:31;0.03;;;0.03;;
38811;SDS011;24553;51.640;-0.752;2022-11-06T03:36:21;2.28;;;0.45;;
38811;SDS011;24553;51.640;-0.752;2022-11-06T03:38:57;0.60;;;0.20;;
38811;SDS011;24553;51.640;-0.752;2022-11-06T03:41:29;0.43;;;0.00;;
38811;SDS011;24553;51.640;-0.752;2022-11-06T03:43:58;0.55;;;0.00;;
38811;SDS011;24553;51.640;-0.752;2022-11-06T03:46:28;3.60;;;1.00;;
38811;SDS011;24553;51.640;-0.752;2022-11-06T03:49:02;0.65;;;0.10;;
38811;SDS011;24553;51.640;-0.752;2022-11-06T03:54:16;2.58;;;0.25;;
38811;SDS011;24553;51.640;-0.752;2022-11-06T03:56:56;1.75;;;0.05;;
38811;SDS011;24553;51.640;-0.752;2022-11-06T03:59:34;0.10;;;0.03;;
38811;SDS011;24553;51.640;-0.752;2022-11-06T04:02:05;0.70;;;0.03;;
38811;SDS011;24553;51.640;-0.752;2022-11-06T04:04:40;0.73;;;0.30;;
38811;SDS011;24553;51.640;-0.752;2022-11-06T04:07:12;1.02;;;0.20;;
38811;SDS011;24553;51.640;-0.752;2022-11-06T04:09:40;2.03;;;0.15;;
38811;SDS011;24553;51.640;-0.752;2022-11-06T04:12:28;2.85;;;0.20;;
38811;SDS011;24553;51.640;-0.752;2022-11-06T04:15:16;2.17;;;0.20;;
38811;SDS011;24553;51.640;-0.752;2022-11-06T04:17:43;1.63;;;0.68;;
38811;SDS011;24553;51.640;-0.752;2022-11-06T04:20:10;3.13;;;0.22;;
38811;SDS011;24553;51.640;-0.752;2022-11-06T04:23:01;0.30;;;0.13;;
38811;SDS011;24553;51.640;-0.752;2022-11-06T04:25:42;0.73;;;0.73;;
38811;SDS011;24553;51.640;-0.752;2022-11-06T04:28:51;2.25;;;0.45;;
38811;SDS011;24553;51.640;-0.752;2022-11-06T04:31:29;0.65;;;0.35;;
38811;SDS011;24553;51.640;-0.752;2022-11-06T04:36:49;0.82;;;0.73;;
38811;SDS011;24553;51.640;-0.752;2022-11-06T04:39:27;5.40;;;1.88;;
38811;SDS011;24553;51.640;-0.752;2022-11-06T04:42:34;0.40;;;0.10;;
38811;SDS011;24553;51.640;-0.752;2022-11-06T04:45:09;0.30;;;0.20;;
38811;SDS011;24553;51.640;-0.752;2022-11-06T04:48:04;1.55;;;0.47;;
38811;SDS011;24553;51.640;-0.752;2022-11-06T04:50:32;2.92;;;0.32;;
38811;SDS011;24553;51.640;-0.752;2022-11-06T04:53:02;1.20;;;0.10;;
38811;SDS011;24553;51.640;-0.752;2022-11-06T04:55:29;1.65;;;0.20;;
38811;SDS011;24553;51.640;-0.752;2022-11-06T04:57:55;1.17;;;0.10;;
38811;SDS011;24553;51.640;-0.752;2022-11-06T05:00:20;0.93;;;0.20;;
38811;SDS011;24553;51.640;-0.752;2022-11-06T05:02:46;2.13;;;0.10;;
38811;SDS011;24553;51.640;-0.752;2022-11-06T05:05:11;2.28;;;0.17;;
38811;SDS011;24553;51.640;-0.752;2022-11-06T05:07:36;0.20;;;0.15;;
38811;SDS011;24553;51.640;-0.752;2022-11-06T05:10:02;0.75;;;0.17;;
38811;SDS011;24553;51.640;-0.752;2022-11-06T05:12:28;0.10;;;0.08;;
38811;SDS011;24553;51.640;-0.752;2022-11-06T05:14:53;0.30;;;0.10;;
38811;SDS011;24553;51.640;-0.752;2022-11-06T05:17:19;0.85;;;0.10;;
38811;SDS011;24553;51.640;-0.752;2022-11-06T05:19:44;1.50;;;0.40;;
38811;SDS011;24553;51.640;-0.752;2022-11-06T05:22:09;0.00;;;0.00;;
38811;SDS011;24553;51.640;-0.752;2022-11-06T05:24:53;0.05;;;0.00;;
38811;SDS011;24553;51.640;-0.752;2022-11-06T05:27:19;0.38;;;0.05;;
38811;SDS011;24553;51.640;-0.752;2022-11-06T05:29:44;0.82;;;0.10;;
38811;SDS011;24553;51.640;-0.752;2022-11-06T05:32:09;0.55;;;0.10;;
38811;SDS011;24553;51.640;-0.752;2022-11-06T05:34:35;0.20;;;0.00;;
38811;SDS011;24553;51.640;-0.752;2022-11-06T05:37:00;0.10;;;0.00;;
38811;SDS011;24553;51.640;-0.752;2022-11-06T05:39:25;1.17;;;0.00;;
38811;SDS011;24553;51.640;-0.752;2022-11-06T05:41:51;0.17;;;0.13;;
38811;SDS011;24553;51.640;-0.752;2022-11-06T05:44:16;0.73;;;0.00;;
38811;SDS011;24553;51.640;-0.752;2022-11-06T05:46:41;0.00;;;0.00;;
38811;SDS011;24553;51.640;-0.752;2022-11-06T05:49:07;0.47;;;0.00;;
38811;SDS011;24553;51.640;-0.752;2022-11-06T05:51:33;0.00;;;0.00;;
38811;SDS011;24553;51.640;-0.752;2022-11-06T05:53:58;0.00;;;0.00;;
38811;SDS011;24553;51.640;-0.752;2022-11-06T05:56:24;4.20;;;0.10;;
38811;SDS011;24553;51.640;-0.752;2022-11-06T05:58:49;0.22;;;0.00;;
38811;SDS011;24553;51.640;-0.752;2022-11-06T06:01:14;0.00;;;0.00;;
38811;SDS011;24553;51.640;-0.752;2022-11-06T06:03:40;2.03;;;0.00;;
38811;SDS011;24553;51.640;-0.752;2022-11-06T06:06:05;1.02;;;0.10;;
38811;SDS011;24553;51.640;-0.752;2022-11-06T06:08:30;2.17;;;0.65;;
38811;SDS011;24553;51.640;-0.752;2022-11-06T06:10:56;1.02;;;0.20;;
38811;SDS011;24553;51.640;-0.752;2022-11-06T06:13:21;0.57;;;0.10;;
38811;SDS011;24553;51.640;-0.752;2022-11-06T06:15:46;0.20;;;0.00;;
38811;SDS011;24553;51.640;-0.752;2022-11-06T06:18:12;1.00;;;0.10;;
38811;SDS011;24553;51.640;-0.752;2022-11-06T06:20:37;5.72;;;1.02;;
38811;SDS011;24553;51.640;-0.752;2022-11-06T06:23:03;1.88;;;0.20;;
38811;SDS011;24553;51.640;-0.752;2022-11-06T06:25:29;2.65;;;0.00;;
38811;SDS011;24553;51.640;-0.752;2022-11-06T06:27:55;0.93;;;0.17;;
38811;SDS011;24553;51.640;-0.752;2022-11-06T06:30:21;1.70;;;0.13;;
38811;SDS011;24553;51.640;-0.752;2022-11-06T06:32:48;4.38;;;0.63;;
38811;SDS011;24553;51.640;-0.752;2022-11-06T06:35:14;1.27;;;0.52;;
38811;SDS011;24553;51.640;-0.752;2022-11-06T06:37:41;0.20;;;0.20;;
38811;SDS011;24553;51.640;-0.752;2022-11-06T06:40:08;0.43;;;0.20;;
38811;SDS011;24553;51.640;-0.752;2022-11-06T06:42:34;1.42;;;0.63;;
38811;SDS011;24553;51.640;-0.752;2022-11-06T06:44:59;2.17;;;0.43;;
38811;SDS011;24553;51.640;-0.752;2022-11-06T06:47:25;1.20;;;0.00;;
38811;SDS011;24553;51.640;-0.752;2022-11-06T06:49:50;0.75;;;0.00;;
38811;SDS011;24553;51.640;-0.752;2022-11-06T06:52:16;0.13;;;0.00;;
38811;SDS011;24553;51.640;-0.752;2022-11-06T06:54:41;1.17;;;0.00;;
38811;SDS011;24553;51.640;-0.752;2022-11-06T06:57:06;2.50;;;0.08;;
38811;SDS011;24553;51.640;-0.752;2022-11-06T06:59:32;1.80;;;0.38;;
38811;SDS011;24553;51.640;-0.752;2022-11-06T07:01:58;1.27;;;0.10;;
38811;SDS011;24553;51.640;-0.752;2022-11-06T07:04:24;2.40;;;0.35;;
38811;SDS011;24553;51.640;-0.752;2022-11-06T07:06:51;0.32;;;0.20;;
38811;SDS011;24553;51.640;-0.752;2022-11-06T07:09:18;0.00;;;0.00;;
38811;SDS011;24553;51.640;-0.752;2022-11-06T07:11:43;0.00;;;0.00;;
38811;SDS011;24553;51.640;-0.752;2022-11-06T07:14:09;0.80;;;0.00;;
38811;SDS011;24553;51.640;-0.752;2022-11-06T07:16:34;0.03;;;0.03;;
38811;SDS011;24553;51.640;-0.752;2022-11-06T07:19:00;0.40;;;0.00;;
38811;SDS011;24553;51.640;-0.752;2022-11-06T07:21:25;0.10;;;0.00;;
38811;SDS011;24553;51.640;-0.752;2022-11-06T07:23:50;0.08;;;0.08;;
38811;SDS011;24553;51.640;-0.752;2022-11-06T07:26:16;0.32;;;0.00;;
38811;SDS011;24553;51.640;-0.752;2022-11-06T07:28:41;1.75;;;0.17;;
38811;SDS011;24553;51.640;-0.752;2022-11-06T07:31:07;0.25;;;0.00;;
38811;SDS011;24553;51.640;-0.752;2022-11-06T07:33:33;1.55;;;0.10;;
38811;SDS011;24553;51.640;-0.752;2022-11-06T07:36:02;0.00;;;0.00;;
38811;SDS011;24553;51.640;-0.752;2022-11-06T07:38:33;0.00;;;0.00;;
38811;SDS011;24553;51.640;-0.752;2022-11-06T07:41:03;0.00;;;0.00;;
38811;SDS011;24553;51.640;-0.752;2022-11-06T07:43:29;0.55;;;0.08;;
38811;SDS011;24553;51.640;-0.752;2022-11-06T07:46:01;0.10;;;0.10;;
38811;SDS011;24553;51.640;-0.752;2022-11-06T07:48:29;0.10;;;0.00;;
38811;SDS011;24553;51.640;-0.752;2022-11-06T07:50:55;0.55;;;0.00;;
38811;SDS011;24553;51.640;-0.752;2022-11-06T07:53:21;0.20;;;0.00;;
38811;SDS011;24553;51.640;-0.752;2022-11-06T07:55:50;0.00;;;0.00;;
38811;SDS011;24553;51.640;-0.752;2022-11-06T07:58:17;0.38;;;0.00;;
38811;SDS011;24553;51.640;-0.752;2022-11-06T08:00:50;1.38;;;0.17;;
38811;SDS011;24553;51.640;-0.752;2022-11-06T08:03:17;0.00;;;0.00;;
38811;SDS011;24553;51.640;-0.752;2022-11-06T08:05:42;0.00;;;0.00;;
38811;SDS011;24553;51.640;-0.752;2022-11-06T08:08:08;0.00;;;0.00;;
38811;SDS011;24553;51.640;-0.752;2022-11-06T08:10:34;0.00;;;0.00;;
38811;SDS011;24553;51.640;-0.752;2022-11-06T08:13:04;0.47;;;0.47;;
38811;SDS011;24553;51.640;-0.752;2022-11-06T08:15:30;0.57;;;0.00;;
38811;SDS011;24553;51.640;-0.752;2022-11-06T08:17:57;0.98;;;0.00;;
38811;SDS011;24553;51.640;-0.752;2022-11-06T08:20:23;0.20;;;0.00;;
38811;SDS011;24553;51.640;-0.752;2022-11-06T08:22:48;2.13;;;0.00;;
38811;SDS011;24553;51.640;-0.752;2022-11-06T08:25:14;0.25;;;0.10;;
38811;SDS011;24553;51.640;-0.752;2022-11-06T08:27:39;0.00;;;0.00;;
38811;SDS011;24553;51.640;-0.752;2022-11-06T08:30:05;0.00;;;0.00;;
38811;SDS011;24553;51.640;-0.752;2022-11-06T08:32:30;0.85;;;0.00;;
38811;SDS011;24553;51.640;-0.752;2022-11-06T08:34:56;0.10;;;0.00;;
38811;SDS011;24553;51.640;-0.752;2022-11-06T08:37:21;0.95;;;0.00;;
38811;SDS011;24553;51.640;-0.752;2022-11-06T08:39:46;0.40;;;0.00;;
38811;SDS011;24553;51.640;-0.752;2022-11-06T08:42:12;0.20;;;0.20;;
38811;SDS011;24553;51.640;-0.752;2022-11-06T08:44:37;1.08;;;0.20;;
38811;SDS011;24553;51.640;-0.752;2022-11-06T08:47:03;0.10;;;0.00;;
38811;SDS011;24553;51.640;-0.752;2022-11-06T08:49:29;2.13;;;0.55;;
38811;SDS011;24553;51.640;-0.752;2022-11-06T08:51:54;0.00;;;0.00;;
38811;SDS011;24553;51.640;-0.752;2022-11-06T08:54:20;2.05;;;0.00;;
38811;SDS011;24553;51.640;-0.752;2022-11-06T08:56:45;2.92;;;0.03;;
38811;SDS011;24553;51.640;-0.752;2022-11-06T08:59:11;1.02;;;0.10;;
38811;SDS011;24553;51.640;-0.752;2022-11-06T09:01:36;1.33;;;0.00;;
38811;SDS011;24553;51.640;-0.752;2022-11-06T09:04:02;1.10;;;0.00;;
38811;SDS011;24553;51.640;-0.752;2022-11-06T09:06:27;0.95;;;0.15;;
38811;SDS011;24553;51.640;-0.752;2022-11-06T09:08:53;1.05;;;0.10;;
38811;SDS011;24553;51.640;-0.752;2022-11-06T09:11:19;0.82;;;0.08;;
38811;SDS011;24553;51.640;-0.752;2022-11-06T09:13:44;0.98;;;0.20;;
38811;SDS011;24553;51.640;-0.752;2022-11-06T09:16:10;0.10;;;0.00;;
38811;SDS011;24553;51.640;-0.752;2022-11-06T09:18:35;0.55;;;0.43;;
38811;SDS011;24553;51.640;-0.752;2022-11-06T09:21:00;1.33;;;0.30;;
38811;SDS011;24553;51.640;-0.752;2022-11-06T09:23:26;2.50;;;0.57;;
38811;SDS011;24553;51.640;-0.752;2022-11-06T09:25:51;2.40;;;0.30;;
38811;SDS011;24553;51.640;-0.752;2022-11-06T09:28:16;3.58;;;0.15;;
38811;SDS011;24553;51.640;-0.752;2022-11-06T09:30:42;2.25;;;0.30;;
38811;SDS011;24553;51.640;-0.752;2022-11-06T09:33:07;0.32;;;0.10;;
38811;SDS011;24553;51.640;-0.752;2022-11-06T09:35:33;1.48;;;0.30;;
38811;SDS011;24553;51.640;-0.752;2022-11-06T09:38:00;1.30;;;0.20;;
38811;SDS011;24553;51.640;-0.752;2022-11-06T09:46:03;2.13;;;0.13;;
38811;SDS011;24553;51.640;-0.752;2022-11-06T09:54:13;2.75;;;0.95;;
38811;SDS011;24553;51.640;-0.752;2022-11-06T09:57:02;0.73;;;0.10;;
38811;SDS011;24553;51.640;-0.752;2022-11-06T09:59:34;0.93;;;0.00;;
38811;SDS011;24553;51.640;-0.752;2022-11-06T10:02:02;1.80;;;0.50;;
38811;SDS011;24553;51.640;-0.752;2022-11-06T10:07:48;2.83;;;0.22;;
38811;SDS011;24553;51.640;-0.752;2022-11-06T10:10:17;1.38;;;0.05;;
38811;SDS011;24553;51.640;-0.752;2022-11-06T10:15:50;1.65;;;0.75;;
38811;SDS011;24553;51.640;-0.752;2022-11-06T10:21:09;0.50;;;0.20;;
38811;SDS011;24553;51.640;-0.752;2022-11-06T10:36:34;1.55;;;0.40;;
38811;SDS011;24553;51.640;-0.752;2022-11-06T10:39:15;0.10;;;0.00;;
38811;SDS011;24553;51.640;-0.752;2022-11-06T10:41:48;2.20;;;0.55;;
38811;SDS011;24553;51.640;-0.752;2022-11-06T10:44:24;0.60;;;0.40;;
38811;SDS011;24553;51.640;-0.752;2022-11-06T10:46:57;0.38;;;0.10;;
38811;SDS011;24553;51.640;-0.752;2022-11-06T10:59:54;0.85;;;0.10;;
38811;SDS011;24553;51.640;-0.752;2022-11-06T11:02:27;1.33;;;0.30;;
38811;SDS011;24553;51.640;-0.752;2022-11-06T11:04:55;1.55;;;0.00;;
38811;SDS011;24553;51.640;-0.752;2022-11-06T11:07:21;2.92;;;0.32;;
38811;SDS011;24553;51.640;-0.752;2022-11-06T11:09:46;0.15;;;0.05;;
38811;SDS011;24553;51.640;-0.752;2022-11-06T11:12:18;3.13;;;0.22;;
38811;SDS011;24553;51.640;-0.752;2022-11-06T11:15:09;3.00;;;0.50;;
38811;SDS011;24553;51.640;-0.752;2022-11-06T11:17:39;2.38;;;0.60;;
38811;SDS011;24553;51.640;-0.752;2022-11-06T11:23:20;0.32;;;0.30;;
38811;SDS011;24553;51.640;-0.752;2022-11-06T11:25:49;3.25;;;0.52;;
38811;SDS011;24553;51.640;-0.752;2022-11-06T11:28:27;1.77;;;0.22;;
38811;SDS011;24553;51.640;-0.752;2022-11-06T11:31:15;1.60;;;0.20;;
38811;SDS011;24553;51.640;-0.752;2022-11-06T11:33:46;2.63;;;0.50;;
38811;SDS011;24553;51.640;-0.752;2022-11-06T11:36:16;5.85;;;0.77;;
38811;SDS011;24553;51.640;-0.752;2022-11-06T11:38:42;1.98;;;1.10;;
38811;SDS011;24553;51.640;-0.752;2022-11-06T11:41:11;7.75;;;0.82;;
38811;SDS011;24553;51.640;-0.752;2022-11-06T11:46:36;2.40;;;0.17;;
38811;SDS011;24553;51.640;-0.752;2022-11-06T11:49:23;2.20;;;0.28;;
38811;SDS011;24553;51.640;-0.752;2022-11-06T11:51:51;1.10;;;0.13;;
38811;SDS011;24553;51.640;-0.752;2022-11-06T11:54:18;1.10;;;0.47;;
38811;SDS011;24553;51.640;-0.752;2022-11-06T11:56:52;10.07;;;1.90;;
38811;SDS011;24553;51.640;-0.752;2022-11-06T11:59:36;3.75;;;0.98;;
38811;SDS011;24553;51.640;-0.752;2022-11-06T12:02:12;1.60;;;1.05;;
38811;SDS011;24553;51.640;-0.752;2022-11-06T12:04:42;10.02;;;0.77;;
38811;SDS011;24553;51.640;-0.752;2022-11-06T12:07:13;3.28;;;0.60;;
38811;SDS011;24553;51.640;-0.752;2022-11-06T12:09:48;4.15;;;0.32;;
38811;SDS011;24553;51.640;-0.752;2022-11-06T12:12:21;2.70;;;0.68;;
38811;SDS011;24553;51.640;-0.752;2022-11-06T12:17:50;3.47;;;0.82;;
38811;SDS011;24553;51.640;-0.752;2022-11-06T12:22:58;6.57;;;0.40;;
38811;SDS011;24553;51.640;-0.752;2022-11-06T12:25:31;4.40;;;0.57;;
38811;SDS011;24553;51.640;-0.752;2022-11-06T12:28:03;8.43;;;1.48;;
38811;SDS011;24553;51.640;-0.752;2022-11-06T12:30:36;3.53;;;0.25;;
38811;SDS011;24553;51.640;-0.752;2022-11-06T12:33:10;3.53;;;0.35;;
38811;SDS011;24553;51.640;-0.752;2022-11-06T12:35:47;8.85;;;0.60;;
38811;SDS011;24553;51.640;-0.752;2022-11-06T12:41:18;9.63;;;1.95;;
38811;SDS011;24553;51.640;-0.752;2022-11-06T12:43:49;8.55;;;1.40;;
38811;SDS011;24553;51.640;-0.752;2022-11-06T12:54:41;9.10;;;1.10;;
38811;SDS011;24553;51.640;-0.752;2022-11-06T13:10:03;7.25;;;2.50;;
38811;SDS011;24553;51.640;-0.752;2022-11-06T13:17:30;10.98;;;1.73;;
38811;SDS011;24553;51.640;-0.752;2022-11-06T13:20:05;10.50;;;1.30;;
38811;SDS011;24553;51.640;-0.752;2022-11-06T13:22:50;6.70;;;1.92;;
38811;SDS011;24553;51.640;-0.752;2022-11-06T13:27:59;13.52;;;1.75;;
38811;SDS011;24553;51.640;-0.752;2022-11-06T13:30:47;10.38;;;1.20;;
38811;SDS011;24553;51.640;-0.752;2022-11-06T13:35:51;4.13;;;0.28;;
38811;SDS011;24553;51.640;-0.752;2022-11-06T13:38:28;4.22;;;0.68;;
38811;SDS011;24553;51.640;-0.752;2022-11-06T13:40:59;1.38;;;0.08;;
38811;SDS011;24553;51.640;-0.752;2022-11-06T13:43:34;1.45;;;0.15;;
38811;SDS011;24553;51.640;-0.752;2022-11-06T13:46:04;0.25;;;0.25;;
38811;SDS011;24553;51.640;-0.752;2022-11-06T13:51:50;3.10;;;0.75;;
38811;SDS011;24553;51.640;-0.752;2022-11-06T13:59:45;0.63;;;0.10;;
38811;SDS011;24553;51.640;-0.752;2022-11-06T14:10:47;2.08;;;0.57;;
38811;SDS011;24553;51.640;-0.752;2022-11-06T14:13:23;24.83;;;10.20;;
38811;SDS011;24553;51.640;-0.752;2022-11-06T14:15:57;5.03;;;2.65;;
38811;SDS011;24553;51.640;-0.752;2022-11-06T14:18:24;2.20;;;1.08;;
38811;SDS011;24553;51.640;-0.752;2022-11-06T14:20:49;0.52;;;0.25;;
38811;SDS011;24553;51.640;-0.752;2022-11-06T14:23:53;1.95;;;0.15;;
38811;SDS011;24553;51.640;-0.752;2022-11-06T14:26:38;0.77;;;0.00;;
38811;SDS011;24553;51.640;-0.752;2022-11-06T14:31:56;1.85;;;0.10;;
38811;SDS011;24553;51.640;-0.752;2022-11-06T14:34:30;2.90;;;0.10;;
38811;SDS011;24553;51.640;-0.752;2022-11-06T14:36:57;2.92;;;0.10;;
38811;SDS011;24553;51.640;-0.752;2022-11-06T14:44:48;0.10;;;0.00;;
38811;SDS011;24553;51.640;-0.752;2022-11-06T14:47:23;0.35;;;0.10;;
38811;SDS011;24553;51.640;-0.752;2022-11-06T14:49:53;0.60;;;0.00;;
38811;SDS011;24553;51.640;-0.752;2022-11-06T14:52:22;0.70;;;0.05;;
38811;SDS011;24553;51.640;-0.752;2022-11-06T14:57:33;1.02;;;0.00;;
38811;SDS011;24553;51.640;-0.752;2022-11-06T14:59:59;0.77;;;0.10;;
38811;SDS011;24553;51.640;-0.752;2022-11-06T15:02:25;1.50;;;0.10;;
38811;SDS011;24553;51.640;-0.752;2022-11-06T15:05:07;0.52;;;0.52;;
38811;SDS011;24553;51.640;-0.752;2022-11-06T15:13:09;1.50;;;0.13;;
38811;SDS011;24553;51.640;-0.752;2022-11-06T15:15:38;1.05;;;0.30;;
38811;SDS011;24553;51.640;-0.752;2022-11-06T15:18:08;1.08;;;0.20;;
38811;SDS011;24553;51.640;-0.752;2022-11-06T15:20:36;1.75;;;0.13;;
38811;SDS011;24553;51.640;-0.752;2022-11-06T15:23:23;0.95;;;0.15;;
38811;SDS011;24553;51.640;-0.752;2022-11-06T15:25:55;1.55;;;0.68;;
38811;SDS011;24553;51.640;-0.752;2022-11-06T15:28:27;3.28;;;1.10;;
38811;SDS011;24553;51.640;-0.752;2022-11-06T15:31:03;0.98;;;0.43;;
38811;SDS011;24553;51.640;-0.752;2022-11-06T15:33:49;1.23;;;0.17;;
38811;SDS011;24553;51.640;-0.752;2022-11-06T15:36:21;1.00;;;0.20;;
38811;SDS011;24553;51.640;-0.752;2022-11-06T15:38:47;0.93;;;0.63;;
38811;SDS011;24553;51.640;-0.752;2022-11-06T15:41:23;2.58;;;0.13;;
38811;SDS011;24553;51.640;-0.752;2022-11-06T15:43:50;1.45;;;0.20;;
38811;SDS011;24553;51.640;-0.752;2022-11-06T15:46:20;6.15;;;0.10;;
38811;SDS011;24553;51.640;-0.752;2022-11-06T15:51:49;2.53;;;0.10;;
38811;SDS011;24553;51.640;-0.752;2022-11-06T15:54:23;1.77;;;0.68;;
38811;SDS011;24553;51.640;-0.752;2022-11-06T15:57:02;0.10;;;0.10;;
38811;SDS011;24553;51.640;-0.752;2022-11-06T16:02:11;0.30;;;0.17;;
38811;SDS011;24553;51.640;-0.752;2022-11-06T16:04:39;0.20;;;0.00;;
38811;SDS011;24553;51.640;-0.752;2022-11-06T16:07:06;2.95;;;0.30;;
38811;SDS011;24553;51.640;-0.752;2022-11-06T16:09:33;1.05;;;0.47;;
38811;SDS011;24553;51.640;-0.752;2022-11-06T16:11:59;0.00;;;0.00;;
38811;SDS011;24553;51.640;-0.752;2022-11-06T16:14:25;1.63;;;1.17;;
38811;SDS011;24553;51.640;-0.752;2022-11-06T16:16:51;0.20;;;0.20;;
38811;SDS011;24553;51.640;-0.752;2022-11-06T16:19:32;2.10;;;0.10;;
38811;SDS011;24553;51.640;-0.752;2022-11-06T16:22:04;1.23;;;0.20;;
38811;SDS011;24553;51.640;-0.752;2022-11-06T16:24:42;0.30;;;0.30;;
38811;SDS011;24553;51.640;-0.752;2022-11-06T16:27:15;4.65;;;1.27;;
38811;SDS011;24553;51.640;-0.752;2022-11-06T16:29:44;3.70;;;1.77;;
38811;SDS011;24553;51.640;-0.752;2022-11-06T16:32:23;11.07;;;3.80;;
38811;SDS011;24553;51.640;-0.752;2022-11-06T16:34:51;9.60;;;4.05;;
38811;SDS011;24553;51.640;-0.752;2022-11-06T16:39:46;21.60;;;9.55;;
38811;SDS011;24553;51.640;-0.752;2022-11-06T16:42:26;9.65;;;4.28;;
38811;SDS011;24553;51.640;-0.752;2022-11-06T16:47:46;10.82;;;5.85;;
38811;SDS011;24553;51.640;-0.752;2022-11-06T16:50:49;4.93;;;2.45;;
38811;SDS011;24553;51.640;-0.752;2022-11-06T16:53:19;12.20;;;3.20;;
38811;SDS011;24553;51.640;-0.752;2022-11-06T16:55:52;4.80;;;2.50;;
38811;SDS011;24553;51.640;-0.752;2022-11-06T16:58:22;2.33;;;1.45;;
38811;SDS011;24553;51.640;-0.752;2022-11-06T17:01:01;4.68;;;2.65;;
38811;SDS011;24553;51.640;-0.752;2022-11-06T17:03:39;12.65;;;6.57;;
38811;SDS011;24553;51.640;-0.752;2022-11-06T17:06:23;10.75;;;2.85;;
38811;SDS011;24553;51.640;-0.752;2022-11-06T17:08:58;7.55;;;1.50;;
38811;SDS011;24553;51.640;-0.752;2022-11-06T17:11:26;5.10;;;1.90;;
38811;SDS011;24553;51.640;-0.752;2022-11-06T17:13:51;4.32;;;1.45;;
38811;SDS011;24553;51.640;-0.752;2022-11-06T17:16:21;7.40;;;2.13;;
38811;SDS011;24553;51.640;-0.752;2022-11-06T17:18:47;3.00;;;1.05;;
38811;SDS011;24553;51.640;-0.752;2022-11-06T17:21:23;6.00;;;1.45;;
38811;SDS011;24553;51.640;-0.752;2022-11-06T17:23:49;1.35;;;0.85;;
38811;SDS011;24553;51.640;-0.752;2022-11-06T17:28:47;1.63;;;1.30;;
38811;SDS011;24553;51.640;-0.752;2022-11-06T17:31:14;2.30;;;0.88;;
38811;SDS011;24553;51.640;-0.752;2022-11-06T17:33:41;1.38;;;0.82;;
38811;SDS011;24553;51.640;-0.752;2022-11-06T17:36:14;5.65;;;0.90;;